createdAt,value
2023-01-26T00:01:09.307Z,21.63
2023-01-26T00:03:36.671Z,27.30
2023-01-26T00:06:04.876Z,30.00
2023-01-26T00:08:35.394Z,29.73
2023-01-26T00:11:04.786Z,20.80
2023-01-26T00:13:32.388Z,14.20
2023-01-26T00:15:59.893Z,23.80
2023-01-26T00:18:28.088Z,23.90
2023-01-26T00:20:59.481Z,15.93
2023-01-26T00:23:28.412Z,29.80
2023-01-26T00:25:55.739Z,26.03
2023-01-26T00:28:23.149Z,23.10
2023-01-26T00:30:50.451Z,25.97
2023-01-26T00:33:17.746Z,30.67
2023-01-26T00:35:53.479Z,18.93
2023-01-26T00:38:20.745Z,28.70
2023-01-26T00:40:47.994Z,26.93
2023-01-26T00:43:15.569Z,31.13
2023-01-26T00:45:43.230Z,25.17
2023-01-26T00:48:10.620Z,24.73
2023-01-26T00:50:37.872Z,28.63
2023-01-26T00:53:05.930Z,29.73
2023-01-26T00:55:33.169Z,24.70
2023-01-26T00:58:00.670Z,27.30
2023-01-26T01:00:30.187Z,28.57
2023-01-26T01:02:57.702Z,26.63
2023-01-26T01:05:26.334Z,24.83
2023-01-26T01:07:53.999Z,25.47
2023-01-26T01:10:22.230Z,23.10
2023-01-26T01:12:49.499Z,25.27
2023-01-26T01:15:17.066Z,29.00
2023-01-26T01:17:44.327Z,29.00
2023-01-26T01:20:12.795Z,29.43
2023-01-26T01:22:40.235Z,28.90
2023-01-26T01:25:08.146Z,27.60
2023-01-26T01:27:36.055Z,31.07
2023-01-26T01:30:06.919Z,32.67
2023-01-26T01:32:35.598Z,28.17
2023-01-26T01:35:03.486Z,28.43
2023-01-26T01:37:30.965Z,29.67
2023-01-26T01:39:58.353Z,30.10
2023-01-26T01:42:26.236Z,26.80
2023-01-26T01:45:38.117Z,24.80
2023-01-26T01:48:13.662Z,27.30
2023-01-26T01:50:41.887Z,27.87
2023-01-26T01:53:12.897Z,22.93
2023-01-26T01:55:40.599Z,24.00
2023-01-26T01:58:08.099Z,24.17
2023-01-26T02:00:36.038Z,24.73
2023-01-26T02:03:14.181Z,28.07
2023-01-26T02:05:50.685Z,24.20
2023-01-26T02:08:19.638Z,27.00
2023-01-26T02:10:49.668Z,27.80
2023-01-26T02:13:18.256Z,25.10
2023-01-26T02:15:46.351Z,29.77
2023-01-26T02:18:13.571Z,33.30
2023-01-26T02:20:45.402Z,30.77
2023-01-26T02:23:35.146Z,30.07
2023-01-26T02:26:08.358Z,29.10
2023-01-26T02:28:35.606Z,23.97
2023-01-26T02:31:03.261Z,27.20
2023-01-26T02:33:32.929Z,26.47
2023-01-26T02:36:01.980Z,30.30
2023-01-26T02:38:39.077Z,26.50
2023-01-26T02:41:10.224Z,27.70
2023-01-26T02:43:37.375Z,23.73
2023-01-26T02:46:04.882Z,26.93
2023-01-26T02:48:51.191Z,27.23
2023-01-26T02:51:18.414Z,25.47
2023-01-26T02:53:45.679Z,28.00
2023-01-26T02:56:13.307Z,31.67
2023-01-26T02:58:40.680Z,34.33
2023-01-26T03:01:07.977Z,33.37
2023-01-26T03:03:44.861Z,32.13
2023-01-26T03:06:13.056Z,29.30
2023-01-26T03:08:41.070Z,31.83
2023-01-26T03:11:09.021Z,27.47
2023-01-26T03:13:36.945Z,35.10
2023-01-26T03:16:07.790Z,33.17
2023-01-26T03:18:54.564Z,29.33
2023-01-26T03:21:40.309Z,28.00
2023-01-26T03:24:30.446Z,30.03
2023-01-26T03:27:16.017Z,25.27
2023-01-26T03:29:44.400Z,24.47
2023-01-26T03:32:11.879Z,27.30
2023-01-26T03:34:39.130Z,28.70
2023-01-26T03:37:06.426Z,29.27
2023-01-26T03:39:51.747Z,28.20
2023-01-26T03:42:37.310Z,28.20
2023-01-26T03:45:24.687Z,25.40
2023-01-26T03:48:09.817Z,30.73
2023-01-26T03:50:55.201Z,25.20
2023-01-26T03:53:41.795Z,28.73
2023-01-26T03:56:17.293Z,29.83
2023-01-26T03:58:44.775Z,25.80
2023-01-26T04:01:19.247Z,28.20
2023-01-26T04:04:06.009Z,26.07
2023-01-26T04:06:51.604Z,28.83
2023-01-26T04:09:19.195Z,30.30
2023-01-26T04:11:46.770Z,26.83
2023-01-26T04:14:34.495Z,26.67
2023-01-26T04:17:35.486Z,26.37
2023-01-26T04:20:21.265Z,24.27
2023-01-26T04:22:48.541Z,25.60
2023-01-26T04:25:18.128Z,26.80
2023-01-26T04:27:45.780Z,27.10
2023-01-26T04:30:15.223Z,29.53
2023-01-26T04:32:43.575Z,33.23
2023-01-26T04:35:11.208Z,26.37
2023-01-26T04:37:38.577Z,25.03
2023-01-26T04:40:07.234Z,25.50
2023-01-26T04:42:34.800Z,27.80
2023-01-26T04:45:02.080Z,25.90
2023-01-26T04:47:29.616Z,25.70
2023-01-26T04:49:57.534Z,24.00
2023-01-26T04:52:24.838Z,29.47
2023-01-26T04:54:52.099Z,25.80
2023-01-26T04:57:20.378Z,23.60
2023-01-26T04:59:47.617Z,27.30
2023-01-26T05:02:15.074Z,24.47
2023-01-26T05:04:42.357Z,24.30
2023-01-26T05:07:10.220Z,24.77
2023-01-26T05:09:37.474Z,26.60
2023-01-26T05:12:19.532Z,28.33
2023-01-26T05:14:46.791Z,23.77
2023-01-26T05:17:14.272Z,24.63
2023-01-26T05:19:41.535Z,22.40
2023-01-26T05:22:10.986Z,24.30
2023-01-26T05:24:39.678Z,23.90
2023-01-26T05:27:21.834Z,26.00
2023-01-26T05:29:49.532Z,27.23
2023-01-26T05:32:16.999Z,22.97
2023-01-26T05:34:44.270Z,26.00
2023-01-26T05:37:14.438Z,24.17
2023-01-26T05:39:42.309Z,24.73
2023-01-26T05:42:10.837Z,22.83
2023-01-26T05:44:38.506Z,27.93
2023-01-26T05:47:05.845Z,27.00
2023-01-26T05:49:33.104Z,29.23
2023-01-26T05:52:00.665Z,26.23
2023-01-26T05:54:28.565Z,23.53
2023-01-26T05:56:56.847Z,26.70
2023-01-26T05:59:24.173Z,23.10
2023-01-26T06:01:51.411Z,26.50
2023-01-26T06:04:18.818Z,26.03
2023-01-26T06:06:46.091Z,25.00
2023-01-26T06:09:13.486Z,22.60
2023-01-26T06:11:41.465Z,27.97
2023-01-26T06:14:08.837Z,24.30
2023-01-26T06:16:36.143Z,27.30
2023-01-26T06:19:03.631Z,27.80
2023-01-26T06:21:31.733Z,24.83
2023-01-26T06:23:59.436Z,24.23
2023-01-26T06:26:27.025Z,25.70
2023-01-26T06:28:55.065Z,21.60
2023-01-26T06:31:23.515Z,24.00
2023-01-26T06:33:50.901Z,41.90
2023-01-26T06:36:18.145Z,24.67
2023-01-26T06:38:47.269Z,23.43
2023-01-26T06:41:14.964Z,22.13
2023-01-26T06:43:46.033Z,23.27
2023-01-26T06:46:14.710Z,24.27
2023-01-26T06:48:41.999Z,26.37
2023-01-26T06:51:46.989Z,28.20
2023-01-26T06:54:15.039Z,22.33
2023-01-26T06:56:42.492Z,26.77
2023-01-26T06:59:10.340Z,26.80
2023-01-26T07:01:40.923Z,25.87
2023-01-26T07:04:08.280Z,27.67
2023-01-26T07:06:35.559Z,29.50
2023-01-26T07:09:02.886Z,31.80
2023-01-26T07:11:31.702Z,28.20
2023-01-26T07:13:59.351Z,29.53
2023-01-26T07:16:27.112Z,27.37
2023-01-26T07:18:55.335Z,25.50
2023-01-26T07:21:22.707Z,29.43
2023-01-26T07:23:50.801Z,15.33
2023-01-26T07:26:18.576Z,25.90
2023-01-26T07:28:46.102Z,22.97
2023-01-26T07:31:14.022Z,23.70
2023-01-26T07:33:41.429Z,19.23
2023-01-26T07:36:10.629Z,24.80
2023-01-26T07:38:38.175Z,26.63
2023-01-26T07:41:07.987Z,22.80
2023-01-26T07:43:35.763Z,24.97
2023-01-26T07:46:03.777Z,26.33
2023-01-26T07:48:31.335Z,21.33
2023-01-26T07:50:59.826Z,22.63
2023-01-26T07:53:29.408Z,27.00
2023-01-26T07:56:06.924Z,25.60
2023-01-26T07:58:34.891Z,24.10
2023-01-26T08:01:07.198Z,20.87
2023-01-26T08:03:34.687Z,22.10
2023-01-26T08:06:01.949Z,22.77
2023-01-26T08:08:30.169Z,24.57
2023-01-26T08:10:59.746Z,21.77
2023-01-26T08:13:35.514Z,22.90
2023-01-26T08:16:04.381Z,24.43
2023-01-26T08:18:32.014Z,15.00
2023-01-26T08:20:59.777Z,23.40
2023-01-26T08:23:27.469Z,23.80
2023-01-26T08:25:55.559Z,16.40
2023-01-26T08:28:22.951Z,20.73
2023-01-26T08:30:50.194Z,20.73
2023-01-26T08:33:17.488Z,20.77
2023-01-26T08:35:44.759Z,20.23
2023-01-26T08:38:12.038Z,22.90
2023-01-26T08:40:39.271Z,19.47
2023-01-26T08:43:07.205Z,16.93
2023-01-26T08:45:34.468Z,21.03
2023-01-26T08:48:01.844Z,20.00
2023-01-26T08:50:29.105Z,22.30
2023-01-26T08:52:57.368Z,23.67
2023-01-26T08:55:24.675Z,20.40
2023-01-26T08:57:55.180Z,21.50
2023-01-26T09:00:24.651Z,22.50
2023-01-26T09:02:57.932Z,22.37
2023-01-26T09:05:25.322Z,16.37
2023-01-26T09:07:52.638Z,17.47
2023-01-26T09:10:19.883Z,21.73
2023-01-26T09:12:47.168Z,19.90
2023-01-26T09:15:14.509Z,21.57
2023-01-26T09:17:42.564Z,22.70
2023-01-26T09:20:11.098Z,24.27
2023-01-26T09:22:38.708Z,17.57
2023-01-26T09:25:06.793Z,18.83
2023-01-26T09:27:34.129Z,18.73
2023-01-26T09:30:01.528Z,21.57
2023-01-26T09:32:29.517Z,17.30
2023-01-26T09:34:57.528Z,19.53
2023-01-26T09:37:24.911Z,19.37
2023-01-26T09:39:52.159Z,18.23
2023-01-26T09:42:37.633Z,21.07
2023-01-26T09:45:22.218Z,19.40
2023-01-26T09:48:05.999Z,22.10
2023-01-26T09:50:40.291Z,19.90
2023-01-26T09:53:16.044Z,19.73
2023-01-26T09:55:45.619Z,16.00
2023-01-26T09:58:17.614Z,18.63
2023-01-26T10:00:48.212Z,20.07
2023-01-26T10:03:25.288Z,20.70
2023-01-26T10:05:58.519Z,21.00
2023-01-26T10:08:26.294Z,20.13
2023-01-26T10:10:57.907Z,23.27
2023-01-26T10:13:25.991Z,15.43
2023-01-26T10:15:58.034Z,18.90
2023-01-26T10:18:32.081Z,23.00
2023-01-26T10:21:03.847Z,17.13
2023-01-26T10:23:32.791Z,20.30
2023-01-26T10:26:11.190Z,17.03
2023-01-26T10:28:39.390Z,19.07
2023-01-26T10:31:12.126Z,16.63
2023-01-26T10:33:43.470Z,18.53
2023-01-26T10:36:13.379Z,17.50
2023-01-26T10:38:42.644Z,17.43
2023-01-26T10:41:24.287Z,15.67
2023-01-26T10:43:55.836Z,10.97
2023-01-26T10:46:29.572Z,11.10
2023-01-26T10:48:58.758Z,17.80
2023-01-26T10:51:29.883Z,18.33
2023-01-26T10:54:18.780Z,17.40
2023-01-26T10:56:47.933Z,16.13
2023-01-26T10:59:22.913Z,13.13
2023-01-26T11:01:55.715Z,15.30
2023-01-26T11:04:24.195Z,17.20
2023-01-26T11:06:52.422Z,16.30
2023-01-26T11:09:24.384Z,19.63
2023-01-26T11:12:17.073Z,14.60
2023-01-26T11:15:01.234Z,10.67
2023-01-26T11:17:34.603Z,15.20
2023-01-26T11:20:30.901Z,13.53
2023-01-26T11:23:04.232Z,17.03
2023-01-26T11:25:39.144Z,12.20
2023-01-26T11:28:25.112Z,13.63
2023-01-26T11:31:16.204Z,14.77
2023-01-26T11:33:52.309Z,14.00
2023-01-26T11:36:30.529Z,16.40
2023-01-26T11:39:08.861Z,12.23
2023-01-26T11:41:48.925Z,13.20
2023-01-26T11:45:00.192Z,15.40
2023-01-26T11:47:41.446Z,12.47
2023-01-26T11:50:26.123Z,13.53
2023-01-26T11:53:06.149Z,9.93
2023-01-26T11:55:48.865Z,14.97
2023-01-26T11:58:27.403Z,14.07
2023-01-26T12:00:58.603Z,9.90
2023-01-26T12:03:33.495Z,12.40
2023-01-26T12:06:05.273Z,11.43
2023-01-26T12:08:39.108Z,10.40
2023-01-26T12:11:22.980Z,12.97
2023-01-26T12:14:20.924Z,11.03
2023-01-26T12:17:17.731Z,7.80
2023-01-26T12:19:52.611Z,13.07
2023-01-26T12:22:25.542Z,10.23
2023-01-26T12:25:19.569Z,10.67
2023-01-26T12:27:52.841Z,13.33
2023-01-26T12:30:30.656Z,14.20
2023-01-26T12:32:58.122Z,10.83
2023-01-26T12:35:42.693Z,10.23
2023-01-26T12:38:18.312Z,9.00
2023-01-26T12:40:58.930Z,12.73
2023-01-26T12:43:42.738Z,11.70
2023-01-26T12:46:10.999Z,11.40
2023-01-26T12:48:44.740Z,10.37
2023-01-26T12:51:19.166Z,9.53
2023-01-26T12:53:55.481Z,11.10
2023-01-26T12:56:28.535Z,11.93
2023-01-26T12:58:59.672Z,12.70
2023-01-26T13:01:38.764Z,11.33
2023-01-26T13:04:10.219Z,11.43
2023-01-26T13:06:37.566Z,9.27
2023-01-26T13:09:19.870Z,11.57
2023-01-26T13:11:49.853Z,9.80
2023-01-26T13:14:37.067Z,9.60
2023-01-26T13:17:53.382Z,9.40
2023-01-26T13:20:43.462Z,10.73
2023-01-26T13:23:44.363Z,8.27
2023-01-26T13:26:40.900Z,12.40
2023-01-26T13:29:31.009Z,11.27
2023-01-26T13:32:00.162Z,12.10
2023-01-26T13:34:30.822Z,10.40
2023-01-26T13:37:06.253Z,11.73
2023-01-26T13:39:36.769Z,9.60
2023-01-26T13:42:18.987Z,13.00
2023-01-26T13:44:52.530Z,11.63
2023-01-26T13:47:25.767Z,12.40
2023-01-26T13:49:53.047Z,11.67
2023-01-26T13:52:22.626Z,11.50
2023-01-26T13:54:51.642Z,13.97
2023-01-26T13:57:22.445Z,12.07
2023-01-26T13:59:51.462Z,12.23
2023-01-26T14:02:24.125Z,8.57
2023-01-26T14:04:54.631Z,13.10
2023-01-26T14:07:26.021Z,11.33
2023-01-26T14:09:55.376Z,11.43
2023-01-26T14:12:24.937Z,10.97
2023-01-26T14:14:55.060Z,12.40
2023-01-26T14:17:27.251Z,11.63
2023-01-26T14:19:55.084Z,9.70
2023-01-26T14:22:22.708Z,12.60
2023-01-26T14:24:51.294Z,10.80
2023-01-26T14:27:30.912Z,10.80
2023-01-26T14:29:59.578Z,11.70
2023-01-26T14:32:29.129Z,10.47
2023-01-26T14:34:58.169Z,10.97
2023-01-26T14:37:25.882Z,7.47
2023-01-26T14:40:18.960Z,9.67
2023-01-26T14:42:47.345Z,12.23
2023-01-26T14:45:15.766Z,12.40
2023-01-26T14:47:44.594Z,11.57
2023-01-26T14:50:19.893Z,9.80
2023-01-26T14:52:48.358Z,8.70
2023-01-26T14:55:20.924Z,7.40
2023-01-26T14:57:48.339Z,15.10
2023-01-26T15:00:27.469Z,12.77
2023-01-26T15:02:56.898Z,12.93
2023-01-26T15:05:31.461Z,15.10
2023-01-26T15:08:01.560Z,12.67
2023-01-26T15:10:37.135Z,12.07
2023-01-26T15:13:07.960Z,12.23
2023-01-26T15:15:38.513Z,14.10
2023-01-26T15:18:20.633Z,11.60
2023-01-26T15:20:59.666Z,16.67
2023-01-26T15:23:29.489Z,13.87
2023-01-26T15:26:03.995Z,15.97
2023-01-26T15:28:32.223Z,12.00
2023-01-26T15:31:00.823Z,14.83
2023-01-26T15:33:49.414Z,14.40
2023-01-26T15:36:32.885Z,19.80
2023-01-26T15:39:03.713Z,20.80
2023-01-26T15:41:31.291Z,13.50
2023-01-26T15:43:59.027Z,19.50
2023-01-26T15:46:27.076Z,22.27
2023-01-26T15:48:55.170Z,13.70
2023-01-26T15:51:23.185Z,17.07
2023-01-26T15:53:50.413Z,14.37
2023-01-26T15:56:17.658Z,14.30
2023-01-26T15:58:44.880Z,13.50
2023-01-26T16:01:32.636Z,13.97
2023-01-26T16:03:59.896Z,12.63
2023-01-26T16:06:29.095Z,18.13
2023-01-26T16:08:57.028Z,25.70
2023-01-26T16:11:28.491Z,18.40
2023-01-26T16:14:03.319Z,11.80
2023-01-26T16:16:32.338Z,11.43
2023-01-26T16:18:59.736Z,8.33
2023-01-26T16:21:30.666Z,9.57
2023-01-26T16:23:58.235Z,12.37
2023-01-26T16:26:26.958Z,11.80
2023-01-26T16:28:54.842Z,14.63
2023-01-26T16:31:23.659Z,13.80
2023-01-26T16:33:52.092Z,12.40
2023-01-26T16:36:20.630Z,12.73
2023-01-26T16:38:48.381Z,12.23
2023-01-26T16:41:21.358Z,13.13
2023-01-26T16:43:48.736Z,13.50
2023-01-26T16:46:16.007Z,11.30
2023-01-26T16:48:43.287Z,8.63
2023-01-26T16:51:17.852Z,13.10
2023-01-26T16:53:45.908Z,9.03
2023-01-26T16:56:14.764Z,12.93
2023-01-26T16:58:42.186Z,13.93
2023-01-26T17:01:18.018Z,10.40
2023-01-26T17:03:45.531Z,11.03
2023-01-26T17:06:12.967Z,12.70
2023-01-26T17:08:41.177Z,12.73
2023-01-26T17:11:14.634Z,13.30
2023-01-26T17:13:41.961Z,14.50
2023-01-26T17:16:14.775Z,14.13
2023-01-26T17:18:42.586Z,12.30
2023-01-26T17:21:09.883Z,11.70
2023-01-26T17:23:40.757Z,13.47
2023-01-26T17:26:10.884Z,12.40
2023-01-26T17:28:38.297Z,15.17
2023-01-26T17:31:09.324Z,13.03
2023-01-26T17:33:36.952Z,15.53
2023-01-26T17:36:05.490Z,13.97
2023-01-26T17:38:32.846Z,15.53
2023-01-26T17:41:00.538Z,18.07
2023-01-26T17:43:29.205Z,16.80
2023-01-26T17:46:07.328Z,15.17
2023-01-26T17:48:36.811Z,17.57
2023-01-26T17:51:06.406Z,17.83
2023-01-26T17:53:35.747Z,15.47
2023-01-26T17:56:03.531Z,14.70
2023-01-26T17:58:31.446Z,18.43
2023-01-26T18:00:58.779Z,11.93
2023-01-26T18:03:26.332Z,14.57
2023-01-26T18:05:55.058Z,13.70
2023-01-26T18:08:23.443Z,11.30
2023-01-26T18:10:56.599Z,16.30
2023-01-26T18:13:23.951Z,7.60
2023-01-26T18:15:53.503Z,16.07
2023-01-26T18:18:21.624Z,11.07
2023-01-26T18:20:48.943Z,16.63
2023-01-26T18:23:16.436Z,15.47
2023-01-26T18:25:44.041Z,18.60
2023-01-26T18:28:11.540Z,13.70
2023-01-26T18:30:38.937Z,8.23
2023-01-26T18:33:09.275Z,11.80
2023-01-26T18:35:36.777Z,11.47
2023-01-26T18:38:04.448Z,12.90
2023-01-26T18:40:31.680Z,18.83
2023-01-26T18:42:58.942Z,10.70
2023-01-26T18:45:26.119Z,15.60
2023-01-26T18:47:53.328Z,16.90
2023-01-26T18:50:21.226Z,12.30
2023-01-26T18:52:48.494Z,12.20
2023-01-26T18:55:16.052Z,6.80
2023-01-26T18:57:43.317Z,9.30
2023-01-26T19:00:13.233Z,12.20
2023-01-26T19:02:40.648Z,13.67
2023-01-26T19:05:08.334Z,15.53
2023-01-26T19:07:36.271Z,14.87
2023-01-26T19:10:05.335Z,15.17
2023-01-26T19:12:44.260Z,12.00
2023-01-26T19:15:11.883Z,10.47
2023-01-26T19:17:41.104Z,13.70
2023-01-26T19:20:09.711Z,15.97
2023-01-26T19:22:37.889Z,18.40
2023-01-26T19:25:07.534Z,18.90
2023-01-26T19:27:34.753Z,18.57
2023-01-26T19:30:02.139Z,15.07
2023-01-26T19:32:29.502Z,19.30
2023-01-26T19:34:56.754Z,20.10
2023-01-26T19:37:24.064Z,17.07
2023-01-26T19:39:52.054Z,17.50
2023-01-26T19:42:19.231Z,17.60
2023-01-26T19:44:46.704Z,16.80
2023-01-26T19:47:14.072Z,12.60
2023-01-26T19:49:41.317Z,16.17
2023-01-26T19:52:08.561Z,12.20
2023-01-26T19:54:35.901Z,13.30
2023-01-26T19:57:03.949Z,16.00
2023-01-26T19:59:31.264Z,16.47
2023-01-26T20:01:58.558Z,19.33
2023-01-26T20:04:25.823Z,21.57
2023-01-26T20:06:53.149Z,18.23
2023-01-26T20:09:20.517Z,16.23
2023-01-26T20:11:49.353Z,17.97
2023-01-26T20:14:17.360Z,15.53
2023-01-26T20:16:44.669Z,17.47
2023-01-26T20:19:13.254Z,18.83
2023-01-26T20:21:40.515Z,16.03
2023-01-26T20:24:10.782Z,12.60
2023-01-26T20:26:40.113Z,18.17
2023-01-26T20:29:10.990Z,17.03
2023-01-26T20:31:48.964Z,16.43
2023-01-26T20:34:17.487Z,16.00
2023-01-26T20:36:48.886Z,14.07
2023-01-26T20:39:24.866Z,17.07
2023-01-26T20:41:53.619Z,11.50
2023-01-26T20:44:20.868Z,12.50
2023-01-26T20:46:49.262Z,11.63
2023-01-26T20:49:18.318Z,16.50
2023-01-26T20:51:46.076Z,14.77
2023-01-26T20:54:15.149Z,14.73
2023-01-26T20:56:43.519Z,15.40
2023-01-26T20:59:11.341Z,14.80
2023-01-26T21:01:38.650Z,17.03
2023-01-26T21:04:07.155Z,16.53
2023-01-26T21:06:35.567Z,14.80
2023-01-26T21:09:04.742Z,13.63
2023-01-26T21:11:32.855Z,9.23
2023-01-26T21:14:03.852Z,15.53
2023-01-26T21:16:32.551Z,13.80
2023-01-26T21:18:59.854Z,11.73
2023-01-26T21:21:28.147Z,13.87
2023-01-26T21:23:55.458Z,14.50
2023-01-26T21:26:24.255Z,14.90
2023-01-26T21:28:52.254Z,12.80
2023-01-26T21:31:21.281Z,14.13
2023-01-26T21:33:49.628Z,11.90
2023-01-26T21:36:19.282Z,13.03
2023-01-26T21:38:50.196Z,12.80
2023-01-26T21:41:37.793Z,13.57
2023-01-26T21:44:07.349Z,15.33
2023-01-26T21:46:34.898Z,15.17
2023-01-26T21:49:02.742Z,14.87
2023-01-26T21:51:48.428Z,12.60
2023-01-26T21:54:16.986Z,12.20
2023-01-26T21:56:44.340Z,15.63
2023-01-26T21:59:14.624Z,12.00
2023-01-26T22:01:44.124Z,14.73
2023-01-26T22:04:13.961Z,15.23
2023-01-26T22:06:44.253Z,14.33
2023-01-26T22:09:13.622Z,14.77
2023-01-26T22:11:42.064Z,16.77
2023-01-26T22:14:14.537Z,18.57
2023-01-26T22:16:42.322Z,14.77
2023-01-26T22:19:10.093Z,13.70
2023-01-26T22:21:37.644Z,14.30
2023-01-26T22:24:05.736Z,14.57
2023-01-26T22:26:33.308Z,13.23
2023-01-26T22:29:02.754Z,11.90
2023-01-26T22:31:30.893Z,11.43
2023-01-26T22:34:03.942Z,11.57
2023-01-26T22:36:31.403Z,11.70
2023-01-26T22:39:00.449Z,12.80
2023-01-26T22:41:37.124Z,12.63
2023-01-26T22:44:05.741Z,13.20
2023-01-26T22:46:33.558Z,13.50
2023-01-26T22:49:01.561Z,12.83
2023-01-26T22:51:30.957Z,11.30
2023-01-26T22:53:59.881Z,12.57
2023-01-26T22:56:28.095Z,15.20
2023-01-26T22:59:03.426Z,11.93
2023-01-26T23:01:33.240Z,11.37
2023-01-26T23:04:01.615Z,8.93
2023-01-26T23:06:29.586Z,9.67
2023-01-26T23:09:00.836Z,10.53
2023-01-26T23:11:31.685Z,12.77
2023-01-26T23:14:00.328Z,12.90
2023-01-26T23:16:28.745Z,13.63
2023-01-26T23:19:01.366Z,14.30
2023-01-26T23:21:31.134Z,16.43
2023-01-26T23:23:59.303Z,10.90
2023-01-26T23:26:26.993Z,15.07
2023-01-26T23:28:54.536Z,13.97
2023-01-26T23:31:22.288Z,10.47
2023-01-26T23:33:49.852Z,11.70
2023-01-26T23:36:18.196Z,11.93
2023-01-26T23:38:46.819Z,10.60
2023-01-26T23:41:14.348Z,7.80
2023-01-26T23:43:41.978Z,13.50
2023-01-26T23:46:10.663Z,14.37
2023-01-26T23:48:38.568Z,9.20
2023-01-26T23:51:08.374Z,11.70
2023-01-26T23:53:37.304Z,10.97
2023-01-26T23:56:08.845Z,16.70
2023-01-26T23:58:37.360Z,14.10
